GLO weather

Gloucestershire Airport
Staverton, England, United Kingdom

Public forecast

Using degrees Celsius for public forecast. Weather courtesy of forecast.io.

METAR (pilot weather report)

Report is more than 2 hours old.

Retrieved 2019/03/25 18:50 UTC (6 hours ago):

EGBJ 251850Z 33003KT CAVOK 08/02 Q1034

TAF (pilot weather forecast)

Closest forecast is RAF Brize Norton, 23.3 nm (43.2 km) ESE. Retrieved 2019/03/25 21:00 UTC (3 hours ago):

TAF EGVN 251926Z 2521/2621 36003KT CAVOK PROB30 TEMPO 2609/2612 SCT022